sensor_id;sensor_type;location;lat;lon;timestamp;pressure;altitude;pressure_sealevel;temperature;humidity
75794;BME280;64418;47.536;19.074;2024-03-07T00:00:05;100287.06;;;7.98;100.00
75794;BME280;64418;47.536;19.074;2024-03-07T00:02:32;100300.81;;;8.03;100.00
75794;BME280;64418;47.536;19.074;2024-03-07T00:04:58;100296.00;;;7.98;100.00
75794;BME280;64418;47.536;19.074;2024-03-07T00:07:25;100302.34;;;7.91;100.00
75794;BME280;64418;47.536;19.074;2024-03-07T00:09:52;100303.56;;;7.88;100.00
75794;BME280;64418;47.536;19.074;2024-03-07T00:12:24;100303.62;;;7.95;100.00
75794;BME280;64418;47.536;19.074;2024-03-07T00:14:51;100307.72;;;7.91;100.00
75794;BME280;64418;47.536;19.074;2024-03-07T00:26:36;100305.59;;;7.86;100.00
75794;BME280;64418;47.536;19.074;2024-03-07T00:29:03;100303.84;;;7.79;100.00
75794;BME280;64418;47.536;19.074;2024-03-07T00:31:31;100303.84;;;7.79;100.00
75794;BME280;64418;47.536;19.074;2024-03-07T00:34:06;100303.03;;;7.78;100.00
75794;BME280;64418;47.536;19.074;2024-03-07T00:36:34;100300.53;;;7.77;100.00
75794;BME280;64418;47.536;19.074;2024-03-07T00:39:01;100285.47;;;7.67;100.00
75794;BME280;64418;47.536;19.074;2024-03-07T00:41:36;100300.47;;;7.70;100.00
75794;BME280;64418;47.536;19.074;2024-03-07T00:44:02;100296.94;;;7.69;100.00
75794;BME280;64418;47.536;19.074;2024-03-07T00:46:29;100300.91;;;7.73;100.00
75794;BME280;64418;47.536;19.074;2024-03-07T00:48:55;100303.16;;;7.70;100.00
75794;BME280;64418;47.536;19.074;2024-03-07T00:51:22;100302.31;;;7.69;100.00
75794;BME280;64418;47.536;19.074;2024-03-07T00:53:49;100290.25;;;7.65;100.00
75794;BME280;64418;47.536;19.074;2024-03-07T00:56:19;100303.91;;;7.64;100.00
75794;BME280;64418;47.536;19.074;2024-03-07T00:58:53;100300.00;;;7.66;100.00
75794;BME280;64418;47.536;19.074;2024-03-07T01:01:19;100300.81;;;7.67;100.00
75794;BME280;64418;47.536;19.074;2024-03-07T01:03:46;100302.31;;;7.69;100.00
75794;BME280;64418;47.536;19.074;2024-03-07T01:06:12;100240.84;;;7.44;100.00
75794;BME280;64418;47.536;19.074;2024-03-07T01:08:39;100293.56;;;7.67;100.00
75794;BME280;64418;47.536;19.074;2024-03-07T01:11:07;100296.03;;;7.62;100.00
75794;BME280;64418;47.536;19.074;2024-03-07T01:13:36;100293.78;;;7.66;100.00
75794;BME280;64418;47.536;19.074;2024-03-07T01:16:09;100293.97;;;7.64;100.00
75794;BME280;64418;47.536;19.074;2024-03-07T01:18:36;100241.50;;;7.31;100.00
75794;BME280;64418;47.536;19.074;2024-03-07T01:21:04;100269.91;;;7.48;100.00
75794;BME280;64418;47.536;19.074;2024-03-07T01:23:31;100302.44;;;7.61;100.00
75794;BME280;64418;47.536;19.074;2024-03-07T01:25:58;100299.53;;;7.63;100.00
75794;BME280;64418;47.536;19.074;2024-03-07T01:28:24;100289.97;;;7.60;100.00
75794;BME280;64418;47.536;19.074;2024-03-07T01:30:50;100299.06;;;7.59;100.00
75794;BME280;64418;47.536;19.074;2024-03-07T01:37:03;100288.66;;;7.56;100.00
75794;BME280;64418;47.536;19.074;2024-03-07T01:39:31;100289.50;;;7.57;100.00
75794;BME280;64418;47.536;19.074;2024-03-07T01:42:08;100291.13;;;7.51;100.00
75794;BME280;64418;47.536;19.074;2024-03-07T01:44:41;100294.44;;;7.53;100.00
75794;BME280;64418;47.536;19.074;2024-03-07T01:47:09;100297.31;;;7.52;100.00
75794;BME280;64418;47.536;19.074;2024-03-07T01:49:37;100290.28;;;7.51;100.00
75794;BME280;64418;47.536;19.074;2024-03-07T01:55:01;100300.31;;;7.42;100.00
75794;BME280;64418;47.536;19.074;2024-03-07T01:57:27;100272.84;;;7.32;100.00
75794;BME280;64418;47.536;19.074;2024-03-07T01:59:58;100249.16;;;7.13;100.00
75794;BME280;64418;47.536;19.074;2024-03-07T02:02:26;100265.09;;;7.29;100.00
75794;BME280;64418;47.536;19.074;2024-03-07T02:04:54;100295.03;;;7.34;100.00
75794;BME280;64418;47.536;19.074;2024-03-07T02:07:20;100297.09;;;7.32;100.00
75794;BME280;64418;47.536;19.074;2024-03-07T02:09:46;100294.56;;;7.31;100.00
75794;BME280;64418;47.536;19.074;2024-03-07T02:15:24;100292.81;;;7.23;100.00
75794;BME280;64418;47.536;19.074;2024-03-07T02:17:51;100290.88;;;7.17;100.00
75794;BME280;64418;47.536;19.074;2024-03-07T02:20:20;100297.09;;;7.17;100.00
75794;BME280;64418;47.536;19.074;2024-03-07T02:25:42;100297.19;;;7.09;100.00
75794;BME280;64418;47.536;19.074;2024-03-07T02:28:09;100292.16;;;7.06;100.00
75794;BME280;64418;47.536;19.074;2024-03-07T02:30:36;100286.97;;;7.05;100.00
75794;BME280;64418;47.536;19.074;2024-03-07T02:33:04;100289.84;;;7.03;100.00
75794;BME280;64418;47.536;19.074;2024-03-07T02:35:30;100293.75;;;7.01;100.00
75794;BME280;64418;47.536;19.074;2024-03-07T02:37:56;100280.44;;;6.99;100.00
75794;BME280;64418;47.536;19.074;2024-03-07T02:40:23;100289.13;;;6.95;100.00
75794;BME280;64418;47.536;19.074;2024-03-07T02:43:02;100289.13;;;6.95;100.00
75794;BME280;64418;47.536;19.074;2024-03-07T02:45:29;100286.75;;;6.92;100.00
75794;BME280;64418;47.536;19.074;2024-03-07T02:47:55;100287.69;;;6.84;100.00
75794;BME280;64418;47.536;19.074;2024-03-07T02:50:22;100290.59;;;6.83;100.00
75794;BME280;64418;47.536;19.074;2024-03-07T02:52:52;100284.72;;;6.79;100.00
75794;BME280;64418;47.536;19.074;2024-03-07T02:55:18;100285.28;;;6.74;100.00
75794;BME280;64418;47.536;19.074;2024-03-07T02:57:45;100239.50;;;6.45;100.00
75794;BME280;64418;47.536;19.074;2024-03-07T03:00:18;100287.87;;;6.68;100.00
75794;BME280;64418;47.536;19.074;2024-03-07T03:02:48;100293.91;;;6.70;100.00
75794;BME280;64418;47.536;19.074;2024-03-07T03:05:16;100282.03;;;6.64;100.00
75794;BME280;64418;47.536;19.074;2024-03-07T03:07:43;100280.81;;;6.67;100.00
75794;BME280;64418;47.536;19.074;2024-03-07T03:10:11;100283.50;;;6.67;100.00
75794;BME280;64418;47.536;19.074;2024-03-07T03:12:38;100289.34;;;6.70;100.00
75794;BME280;64418;47.536;19.074;2024-03-07T03:15:06;100280.44;;;6.70;100.00
75794;BME280;64418;47.536;19.074;2024-03-07T03:17:43;100287.69;;;6.69;100.00
75794;BME280;64418;47.536;19.074;2024-03-07T03:20:11;100292.44;;;6.67;100.00
75794;BME280;64418;47.536;19.074;2024-03-07T03:22:36;100284.16;;;6.69;100.00
75794;BME280;64418;47.536;19.074;2024-03-07T03:25:03;100293.72;;;6.71;100.00
75794;BME280;64418;47.536;19.074;2024-03-07T03:27:30;100281.91;;;6.72;100.00
75794;BME280;64418;47.536;19.074;2024-03-07T03:29:56;100279.97;;;6.66;100.00
75794;BME280;64418;47.536;19.074;2024-03-07T03:32:23;100276.44;;;6.66;100.00
75794;BME280;64418;47.536;19.074;2024-03-07T03:34:56;100278.75;;;6.69;100.00
75794;BME280;64418;47.536;19.074;2024-03-07T03:37:23;100261.13;;;6.52;100.00
75794;BME280;64418;47.536;19.074;2024-03-07T03:39:49;100288.78;;;6.60;100.00
75794;BME280;64418;47.536;19.074;2024-03-07T03:42:16;100280.72;;;6.60;100.00
75794;BME280;64418;47.536;19.074;2024-03-07T03:44:43;100282.75;;;6.58;100.00
75794;BME280;64418;47.536;19.074;2024-03-07T03:47:09;100269.38;;;6.50;100.00
75794;BME280;64418;47.536;19.074;2024-03-07T03:49:35;100282.47;;;6.53;100.00
75794;BME280;64418;47.536;19.074;2024-03-07T03:52:04;100284.31;;;6.53;100.00
75794;BME280;64418;47.536;19.074;2024-03-07T03:54:30;100283.84;;;6.49;100.00
75794;BME280;64418;47.536;19.074;2024-03-07T03:56:56;100279.50;;;6.48;100.00
75794;BME280;64418;47.536;19.074;2024-03-07T03:59:23;100210.63;;;6.02;100.00
75794;BME280;64418;47.536;19.074;2024-03-07T04:01:49;100292.00;;;6.41;100.00
75794;BME280;64418;47.536;19.074;2024-03-07T04:04:15;100286.47;;;6.35;100.00
75794;BME280;64418;47.536;19.074;2024-03-07T04:06:41;100229.16;;;5.97;100.00
75794;BME280;64418;47.536;19.074;2024-03-07T04:09:24;100231.19;;;5.95;100.00
75794;BME280;64418;47.536;19.074;2024-03-07T04:11:52;100295.81;;;6.24;100.00
75794;BME280;64418;47.536;19.074;2024-03-07T04:14:19;100246.25;;;6.04;100.00
75794;BME280;64418;47.536;19.074;2024-03-07T04:16:46;100290.09;;;6.27;100.00
75794;BME280;64418;47.536;19.074;2024-03-07T04:19:13;100295.19;;;6.22;100.00
75794;BME280;64418;47.536;19.074;2024-03-07T04:21:39;100276.12;;;6.09;100.00
75794;BME280;64418;47.536;19.074;2024-03-07T04:24:05;100294.19;;;6.23;100.00
75794;BME280;64418;47.536;19.074;2024-03-07T04:26:38;100297.87;;;6.22;100.00
75794;BME280;64418;47.536;19.074;2024-03-07T04:29:04;100293.66;;;6.19;100.00
75794;BME280;64418;47.536;19.074;2024-03-07T04:31:30;100296.19;;;6.21;100.00
75794;BME280;64418;47.536;19.074;2024-03-07T04:33:56;100309.47;;;6.22;100.00
75794;BME280;64418;47.536;19.074;2024-03-07T04:36:22;100291.87;;;6.12;100.00
75794;BME280;64418;47.536;19.074;2024-03-07T04:38:49;100305.63;;;6.17;100.00
75794;BME280;64418;47.536;19.074;2024-03-07T04:41:15;100253.09;;;5.83;100.00
75794;BME280;64418;47.536;19.074;2024-03-07T04:43:49;100318.37;;;6.23;100.00
75794;BME280;64418;47.536;19.074;2024-03-07T04:46:15;100319.03;;;6.25;100.00
75794;BME280;64418;47.536;19.074;2024-03-07T04:48:42;100316.41;;;6.17;100.00
75794;BME280;64418;47.536;19.074;2024-03-07T04:51:08;100318.25;;;6.16;100.00
75794;BME280;64418;47.536;19.074;2024-03-07T04:53:34;100314.81;;;6.08;100.00
75794;BME280;64418;47.536;19.074;2024-03-07T04:56:00;100318.66;;;6.05;100.00
75794;BME280;64418;47.536;19.074;2024-03-07T04:58:29;100304.00;;;5.85;100.00
75794;BME280;64418;47.536;19.074;2024-03-07T05:01:06;100318.44;;;5.92;100.00
75794;BME280;64418;47.536;19.074;2024-03-07T05:03:32;100322.13;;;5.91;100.00
75794;BME280;64418;47.536;19.074;2024-03-07T05:05:58;100323.31;;;5.89;100.00
75794;BME280;64418;47.536;19.074;2024-03-07T05:08:26;100326.03;;;5.80;100.00
75794;BME280;64418;47.536;19.074;2024-03-07T05:10:53;100326.19;;;5.79;100.00
75794;BME280;64418;47.536;19.074;2024-03-07T05:13:19;100248.91;;;5.27;100.00
75794;BME280;64418;47.536;19.074;2024-03-07T05:15:46;100337.12;;;5.77;100.00
75794;BME280;64418;47.536;19.074;2024-03-07T05:18:15;100335.25;;;5.78;100.00
75794;BME280;64418;47.536;19.074;2024-03-07T05:20:41;100336.59;;;5.82;100.00
75794;BME280;64418;47.536;19.074;2024-03-07T05:23:07;100331.78;;;5.77;100.00
75794;BME280;64418;47.536;19.074;2024-03-07T05:25:33;100341.53;;;5.70;100.00
75794;BME280;64418;47.536;19.074;2024-03-07T05:28:00;100335.47;;;5.76;100.00
75794;BME280;64418;47.536;19.074;2024-03-07T05:30:25;100344.84;;;5.89;100.00
75794;BME280;64418;47.536;19.074;2024-03-07T05:32:52;100345.44;;;5.99;100.00
75794;BME280;64418;47.536;19.074;2024-03-07T05:35:50;100330.16;;;5.99;100.00
75794;BME280;64418;47.536;19.074;2024-03-07T05:38:21;100348.66;;;6.17;100.00
75794;BME280;64418;47.536;19.074;2024-03-07T05:41:02;100328.16;;;6.16;100.00
75794;BME280;64418;47.536;19.074;2024-03-07T05:43:39;100352.94;;;6.34;100.00
75794;BME280;64418;47.536;19.074;2024-03-07T05:46:20;100343.28;;;6.40;100.00
75794;BME280;64418;47.536;19.074;2024-03-07T05:48:47;100352.03;;;6.42;100.00
75794;BME280;64418;47.536;19.074;2024-03-07T05:51:27;100354.00;;;6.48;100.00
75794;BME280;64418;47.536;19.074;2024-03-07T05:53:54;100360.44;;;6.61;100.00
75794;BME280;64418;47.536;19.074;2024-03-07T05:56:20;100351.88;;;6.58;100.00
75794;BME280;64418;47.536;19.074;2024-03-07T05:58:48;100305.41;;;6.26;100.00
75794;BME280;64418;47.536;19.074;2024-03-07T06:01:14;100372.22;;;6.60;100.00
75794;BME280;64418;47.536;19.074;2024-03-07T06:03:41;100364.44;;;6.65;100.00
75794;BME280;64418;47.536;19.074;2024-03-07T06:06:07;100362.03;;;6.70;100.00
75794;BME280;64418;47.536;19.074;2024-03-07T06:08:34;100362.69;;;6.72;100.00
75794;BME280;64418;47.536;19.074;2024-03-07T06:11:01;100365.38;;;6.72;100.00
75794;BME280;64418;47.536;19.074;2024-03-07T06:13:27;100366.41;;;6.71;100.00
75794;BME280;64418;47.536;19.074;2024-03-07T06:15:52;100362.34;;;6.75;100.00
75794;BME280;64418;47.536;19.074;2024-03-07T06:18:19;100371.12;;;6.69;100.00
75794;BME280;64418;47.536;19.074;2024-03-07T06:20:46;100360.00;;;6.72;100.00
75794;BME280;64418;47.536;19.074;2024-03-07T06:23:12;100362.34;;;6.75;100.00
75794;BME280;64418;47.536;19.074;2024-03-07T06:25:40;100366.03;;;6.74;100.00
75794;BME280;64418;47.536;19.074;2024-03-07T06:28:06;100359.56;;;6.84;100.00
75794;BME280;64418;47.536;19.074;2024-03-07T06:30:32;100366.06;;;6.89;100.00
75794;BME280;64418;47.536;19.074;2024-03-07T06:32:58;100366.53;;;6.93;100.00
75794;BME280;64418;47.536;19.074;2024-03-07T06:35:24;100367.38;;;6.93;100.00
75794;BME280;64418;47.536;19.074;2024-03-07T06:37:50;100377.16;;;6.94;100.00
75794;BME280;64418;47.536;19.074;2024-03-07T06:40:16;100374.06;;;6.97;100.00
75794;BME280;64418;47.536;19.074;2024-03-07T06:42:43;100372.22;;;6.98;100.00
75794;BME280;64418;47.536;19.074;2024-03-07T06:45:09;100382.69;;;6.93;100.00
75794;BME280;64418;47.536;19.074;2024-03-07T06:47:35;100387.25;;;6.92;100.00
75794;BME280;64418;47.536;19.074;2024-03-07T06:50:01;100384.28;;;6.87;100.00
75794;BME280;64418;47.536;19.074;2024-03-07T06:52:27;100390.47;;;6.88;100.00
75794;BME280;64418;47.536;19.074;2024-03-07T06:54:52;100396.59;;;6.82;100.00
75794;BME280;64418;47.536;19.074;2024-03-07T06:57:18;100383.63;;;6.85;100.00
75794;BME280;64418;47.536;19.074;2024-03-07T06:59:46;100389.28;;;6.90;100.00
75794;BME280;64418;47.536;19.074;2024-03-07T07:02:11;100386.78;;;6.89;100.00
75794;BME280;64418;47.536;19.074;2024-03-07T07:04:37;100387.78;;;6.88;100.00
75794;BME280;64418;47.536;19.074;2024-03-07T07:07:04;100398.31;;;6.97;100.00
75794;BME280;64418;47.536;19.074;2024-03-07T07:09:30;100396.09;;;7.01;100.00
75794;BME280;64418;47.536;19.074;2024-03-07T07:11:55;100399.91;;;7.06;100.00
75794;BME280;64418;47.536;19.074;2024-03-07T07:14:21;100402.22;;;6.95;100.00
75794;BME280;64418;47.536;19.074;2024-03-07T07:16:49;100403.59;;;6.91;100.00
75794;BME280;64418;47.536;19.074;2024-03-07T07:19:14;100404.72;;;6.96;100.00
75794;BME280;64418;47.536;19.074;2024-03-07T07:21:40;100405.25;;;6.92;100.00
75794;BME280;64418;47.536;19.074;2024-03-07T07:24:06;100408.25;;;6.97;100.00
75794;BME280;64418;47.536;19.074;2024-03-07T07:26:32;100395.16;;;6.94;100.00
75794;BME280;64418;47.536;19.074;2024-03-07T07:28:58;100401.09;;;7.04;100.00
75794;BME280;64418;47.536;19.074;2024-03-07T07:31:25;100406.72;;;7.17;100.00
75794;BME280;64418;47.536;19.074;2024-03-07T07:33:52;100405.03;;;7.16;100.00
75794;BME280;64418;47.536;19.074;2024-03-07T07:36:18;100399.75;;;7.22;100.00
75794;BME280;64418;47.536;19.074;2024-03-07T07:38:44;100409.34;;;7.25;100.00
75794;BME280;64418;47.536;19.074;2024-03-07T07:41:10;100412.94;;;7.17;100.00
75794;BME280;64418;47.536;19.074;2024-03-07T07:43:37;100418.22;;;7.11;100.00
75794;BME280;64418;47.536;19.074;2024-03-07T07:46:05;100410.13;;;7.11;100.00
75794;BME280;64418;47.536;19.074;2024-03-07T07:48:31;100417.59;;;7.23;100.00
75794;BME280;64418;47.536;19.074;2024-03-07T07:50:59;100425.00;;;7.95;100.00
75794;BME280;64418;47.536;19.074;2024-03-07T07:53:25;100420.09;;;7.84;100.00
75794;BME280;64418;47.536;19.074;2024-03-07T07:55:51;100425.88;;;7.81;100.00
75794;BME280;64418;47.536;19.074;2024-03-07T07:58:17;100418.41;;;7.83;100.00
75794;BME280;64418;47.536;19.074;2024-03-07T08:00:43;100428.53;;;7.22;100.00
75794;BME280;64418;47.536;19.074;2024-03-07T08:03:10;100415.66;;;7.32;100.00
75794;BME280;64418;47.536;19.074;2024-03-07T08:05:37;100432.66;;;7.33;100.00
75794;BME280;64418;47.536;19.074;2024-03-07T08:08:06;100433.78;;;7.38;100.00
75794;BME280;64418;47.536;19.074;2024-03-07T08:10:33;100430.78;;;7.33;100.00
75794;BME280;64418;47.536;19.074;2024-03-07T08:13:01;100428.66;;;7.43;100.00
75794;BME280;64418;47.536;19.074;2024-03-07T08:15:29;100429.75;;;7.34;100.00
75794;BME280;64418;47.536;19.074;2024-03-07T08:17:57;100431.62;;;7.48;100.00
75794;BME280;64418;47.536;19.074;2024-03-07T08:20:24;100435.25;;;7.41;100.00
75794;BME280;64418;47.536;19.074;2024-03-07T08:22:51;100441.47;;;7.41;100.00
75794;BME280;64418;47.536;19.074;2024-03-07T08:25:20;100433.13;;;7.36;100.00
75794;BME280;64418;47.536;19.074;2024-03-07T08:27:48;100441.94;;;7.30;100.00
75794;BME280;64418;47.536;19.074;2024-03-07T08:30:16;100444.37;;;7.40;100.00
75794;BME280;64418;47.536;19.074;2024-03-07T08:32:43;100454.03;;;7.49;100.00
75794;BME280;64418;47.536;19.074;2024-03-07T08:35:10;100440.75;;;7.47;100.00
75794;BME280;64418;47.536;19.074;2024-03-07T08:37:36;100449.22;;;7.59;100.00
75794;BME280;64418;47.536;19.074;2024-03-07T08:40:03;100444.94;;;7.64;100.00
75794;BME280;64418;47.536;19.074;2024-03-07T08:42:31;100446.31;;;7.60;100.00
75794;BME280;64418;47.536;19.074;2024-03-07T08:44:57;100438.88;;;7.48;100.00
75794;BME280;64418;47.536;19.074;2024-03-07T08:47:23;100444.56;;;7.53;100.00
75794;BME280;64418;47.536;19.074;2024-03-07T08:49:49;100457.13;;;7.60;100.00
75794;BME280;64418;47.536;19.074;2024-03-07T08:52:14;100451.00;;;7.66;100.00
75794;BME280;64418;47.536;19.074;2024-03-07T08:54:40;100463.34;;;7.61;100.00
75794;BME280;64418;47.536;19.074;2024-03-07T08:57:06;100458.25;;;7.66;100.00
75794;BME280;64418;47.536;19.074;2024-03-07T08:59:34;100463.34;;;7.61;100.00
75794;BME280;64418;47.536;19.074;2024-03-07T09:02:00;100460.09;;;7.51;100.00
75794;BME280;64418;47.536;19.074;2024-03-07T09:04:25;100462.78;;;7.36;100.00
75794;BME280;64418;47.536;19.074;2024-03-07T09:06:51;100473.63;;;7.28;100.00
75794;BME280;64418;47.536;19.074;2024-03-07T09:09:17;100467.78;;;7.24;100.00
75794;BME280;64418;47.536;19.074;2024-03-07T09:11:44;100469.56;;;7.32;100.00
75794;BME280;64418;47.536;19.074;2024-03-07T09:14:10;100468.44;;;7.41;100.00
75794;BME280;64418;47.536;19.074;2024-03-07T09:16:37;100469.78;;;7.22;100.00
75794;BME280;64418;47.536;19.074;2024-03-07T09:19:03;100469.62;;;7.24;100.00
75794;BME280;64418;47.536;19.074;2024-03-07T09:21:29;100478.06;;;7.21;100.00
75794;BME280;64418;47.536;19.074;2024-03-07T09:23:55;100473.34;;;7.38;100.00
75794;BME280;64418;47.536;19.074;2024-03-07T09:26:21;100467.13;;;7.37;100.00
75794;BME280;64418;47.536;19.074;2024-03-07T09:28:47;100473.81;;;7.41;100.00
75794;BME280;64418;47.536;19.074;2024-03-07T09:31:14;100475.22;;;7.37;100.00
75794;BME280;64418;47.536;19.074;2024-03-07T09:33:42;100478.19;;;7.42;100.00
75794;BME280;64418;47.536;19.074;2024-03-07T09:36:08;100479.50;;;7.46;100.00
75794;BME280;64418;47.536;19.074;2024-03-07T09:38:34;100477.53;;;7.40;100.00
75794;BME280;64418;47.536;19.074;2024-03-07T09:41:01;100475.22;;;7.52;100.00
75794;BME280;64418;47.536;19.074;2024-03-07T09:43:28;100479.53;;;7.61;100.00
75794;BME280;64418;47.536;19.074;2024-03-07T09:45:55;100483.22;;;7.60;100.00
75794;BME280;64418;47.536;19.074;2024-03-07T09:48:22;100483.97;;;7.54;100.00
75794;BME280;64418;47.536;19.074;2024-03-07T09:50:50;100493.16;;;7.59;100.00
75794;BME280;64418;47.536;19.074;2024-03-07T09:53:18;100491.31;;;7.45;100.00
75794;BME280;64418;47.536;19.074;2024-03-07T09:55:45;100486.69;;;7.54;100.00
75794;BME280;64418;47.536;19.074;2024-03-07T09:58:12;100488.44;;;7.47;100.00
75794;BME280;64418;47.536;19.074;2024-03-07T10:00:42;100486.69;;;7.54;100.00
75794;BME280;64418;47.536;19.074;2024-03-07T10:03:09;100486.75;;;7.60;100.00
75794;BME280;64418;47.536;19.074;2024-03-07T10:05:35;100483.12;;;7.53;100.00
75794;BME280;64418;47.536;19.074;2024-03-07T10:08:03;100482.03;;;7.62;100.00
75794;BME280;64418;47.536;19.074;2024-03-07T10:10:31;100485.47;;;7.71;99.97
75794;BME280;64418;47.536;19.074;2024-03-07T10:12:57;100477.28;;;7.64;100.00
75794;BME280;64418;47.536;19.074;2024-03-07T10:15:28;100484.91;;;7.75;100.00
75794;BME280;64418;47.536;19.074;2024-03-07T10:17:54;100484.44;;;7.87;100.00
75794;BME280;64418;47.536;19.074;2024-03-07T10:20:20;100494.97;;;7.96;100.00
75794;BME280;64418;47.536;19.074;2024-03-07T10:22:47;100492.53;;;7.87;100.00
75794;BME280;64418;47.536;19.074;2024-03-07T10:25:17;100491.81;;;7.93;100.00
75794;BME280;64418;47.536;19.074;2024-03-07T10:27:43;100488.84;;;7.88;100.00
75794;BME280;64418;47.536;19.074;2024-03-07T10:30:10;100494.03;;;8.04;99.30
75794;BME280;64418;47.536;19.074;2024-03-07T10:32:36;100492.84;;;7.92;99.02
75794;BME280;64418;47.536;19.074;2024-03-07T10:35:02;100499.16;;;7.99;99.76
75794;BME280;64418;47.536;19.074;2024-03-07T10:37:34;100495.53;;;7.92;99.98
75794;BME280;64418;47.536;19.074;2024-03-07T10:40:01;100499.78;;;7.86;100.00
75794;BME280;64418;47.536;19.074;2024-03-07T10:42:29;100497.84;;;7.95;99.32
75794;BME280;64418;47.536;19.074;2024-03-07T10:45:03;100494.87;;;8.04;100.00
75794;BME280;64418;47.536;19.074;2024-03-07T10:47:31;100496.62;;;7.97;100.00
75794;BME280;64418;47.536;19.074;2024-03-07T10:50:06;100503.06;;;8.11;100.00
75794;BME280;64418;47.536;19.074;2024-03-07T10:52:39;100502.47;;;8.01;100.00
75794;BME280;64418;47.536;19.074;2024-03-07T10:55:12;100506.22;;;7.85;100.00
75794;BME280;64418;47.536;19.074;2024-03-07T10:57:49;100503.62;;;7.92;100.00
75794;BME280;64418;47.536;19.074;2024-03-07T11:00:15;100506.69;;;8.03;99.80
75794;BME280;64418;47.536;19.074;2024-03-07T11:02:49;100503.22;;;8.09;98.66
75794;BME280;64418;47.536;19.074;2024-03-07T11:05:16;100502.94;;;7.90;100.00
75794;BME280;64418;47.536;19.074;2024-03-07T11:07:43;100513.47;;;7.99;99.42
75794;BME280;64418;47.536;19.074;2024-03-07T11:10:10;100504.09;;;7.95;100.00
75794;BME280;64418;47.536;19.074;2024-03-07T11:12:38;100501.56;;;7.94;100.00
75794;BME280;64418;47.536;19.074;2024-03-07T11:15:11;100508.81;;;7.79;99.91
75794;BME280;64418;47.536;19.074;2024-03-07T11:17:39;100500.53;;;7.80;100.00
75794;BME280;64418;47.536;19.074;2024-03-07T11:20:21;100503.78;;;7.75;99.89
75794;BME280;64418;47.536;19.074;2024-03-07T11:22:48;100499.25;;;7.91;99.93
75794;BME280;64418;47.536;19.074;2024-03-07T11:25:16;100472.19;;;7.69;100.00
75794;BME280;64418;47.536;19.074;2024-03-07T11:27:51;100503.16;;;8.03;100.00
75794;BME280;64418;47.536;19.074;2024-03-07T11:30:18;100505.94;;;7.95;99.87
75794;BME280;64418;47.536;19.074;2024-03-07T11:32:44;100497.84;;;7.95;99.30
75794;BME280;64418;47.536;19.074;2024-03-07T11:35:12;100494.50;;;7.93;99.70
75794;BME280;64418;47.536;19.074;2024-03-07T11:37:39;100494.31;;;7.80;99.97
75794;BME280;64418;47.536;19.074;2024-03-07T11:40:06;100478.50;;;7.77;100.00
75794;BME280;64418;47.536;19.074;2024-03-07T11:42:32;100491.06;;;7.99;99.34
75794;BME280;64418;47.536;19.074;2024-03-07T11:45:00;100493.38;;;7.87;99.80
75794;BME280;64418;47.536;19.074;2024-03-07T11:47:35;100487.97;;;8.02;99.32
75794;BME280;64418;47.536;19.074;2024-03-07T11:50:02;100486.97;;;8.03;99.62
75794;BME280;64418;47.536;19.074;2024-03-07T11:52:29;100498.97;;;8.15;98.99
75794;BME280;64418;47.536;19.074;2024-03-07T11:54:55;100494.59;;;7.99;99.07
75794;BME280;64418;47.536;19.074;2024-03-07T11:57:21;100494.47;;;8.22;97.86
75794;BME280;64418;47.536;19.074;2024-03-07T11:59:47;100496.16;;;8.23;98.20
75794;BME280;64418;47.536;19.074;2024-03-07T12:02:14;100487.78;;;8.18;98.01
75794;BME280;64418;47.536;19.074;2024-03-07T12:04:41;100496.66;;;8.12;98.25
75794;BME280;64418;47.536;19.074;2024-03-07T12:07:07;100495.50;;;8.06;96.77
75794;BME280;64418;47.536;19.074;2024-03-07T12:09:33;100495.81;;;8.11;96.98
75794;BME280;64418;47.536;19.074;2024-03-07T12:11:59;100497.09;;;8.01;97.19
75794;BME280;64418;47.536;19.074;2024-03-07T12:14:26;100490.31;;;7.90;97.83
75794;BME280;64418;47.536;19.074;2024-03-07T12:16:53;100495.50;;;8.06;98.02
75794;BME280;64418;47.536;19.074;2024-03-07T12:19:22;100490.88;;;8.00;98.52
75794;BME280;64418;47.536;19.074;2024-03-07T12:21:56;100494.69;;;8.06;98.98
75794;BME280;64418;47.536;19.074;2024-03-07T12:24:22;100492.75;;;8.00;98.60
75794;BME280;64418;47.536;19.074;2024-03-07T12:26:48;100489.47;;;8.19;98.04
75794;BME280;64418;47.536;19.074;2024-03-07T12:29:14;100487.41;;;8.21;97.83
75794;BME280;64418;47.536;19.074;2024-03-07T12:31:43;100492.91;;;8.13;98.62
75794;BME280;64418;47.536;19.074;2024-03-07T12:34:09;100491.50;;;8.17;98.60
75794;BME280;64418;47.536;19.074;2024-03-07T12:36:35;100492.66;;;8.08;99.16
75794;BME280;64418;47.536;19.074;2024-03-07T12:39:04;100490.59;;;8.10;99.12
75794;BME280;64418;47.536;19.074;2024-03-07T12:41:29;100492.41;;;8.24;98.92
75794;BME280;64418;47.536;19.074;2024-03-07T12:43:55;100492.88;;;8.28;99.15
75794;BME280;64418;47.536;19.074;2024-03-07T12:46:23;100487.53;;;7.98;100.00
75794;BME280;64418;47.536;19.074;2024-03-07T12:48:49;100489.66;;;8.03;100.00
75794;BME280;64418;47.536;19.074;2024-03-07T12:51:15;100493.56;;;7.86;100.00
75794;BME280;64418;47.536;19.074;2024-03-07T12:53:41;100491.59;;;8.09;100.00
75794;BME280;64418;47.536;19.074;2024-03-07T12:56:09;100495.81;;;7.97;100.00
75794;BME280;64418;47.536;19.074;2024-03-07T12:58:35;100495.22;;;8.16;100.00
75794;BME280;64418;47.536;19.074;2024-03-07T13:01:01;100498.75;;;8.16;100.00
75794;BME280;64418;47.536;19.074;2024-03-07T13:03:27;100498.88;;;8.23;100.00